Hovedside
METAR-TAF:

METAR-TAF

Lufthavner :

Kempegowda internasjonale lufthavn

Bangalore, India

breddegrad: 13-11-56N, lengdegrad: 077-42-20E, høyde over havet: 915 m

Gjeldene værobservasjon

Denne rapporten ble laget for 46 minutter siden, klokken 22:00 UTC
Vind 5 kt fra Vest
Temperatur 21°C
Luftfuktighet 88%
Trykk 1012 hPa
Sikt: 6000 m
Få skyer i en høyde av 1200 ft
Spredte skyer i en høyde av 8000 ft

METAR: VOBL 142200Z 27005KT 6000 FEW012 SCT080 21/19 Q1012 NOSIG

Tid: 04:16 (22:46 UTC)

Varsel

Denne rapporten ble laget for 2 timer og 46 minutter siden, klokken 20:00 UTC
Varsel gyldig fra 14. klokken 21 UTC til 15. klokken 06 UTC
Vind 10 kt fra Vest
Sikt: 6000 m
Spredte skyer i en høyde av 1200 ft
Spredte skyer i en høyde av 8000 ft
Midlertidig
fra 15. klokken 00 UTC til 15. klokken 03 UTC
Brutte skyer i en høyde av 800 ft
Spredte skyer i en høyde av 1200 ft
Brutte skyer i en høyde av 8000 ft

TAF: VOBL 142000Z 1421/1506 27010KT 6000 SCT012 SCT080 TEMPO 1500/1503 BKN008 SCT012 BKN080

Værobservasjoner og værvarsel for over 4000 flyplasser (METAR- og TAF-rapporter).

Tilgjengelige stasjoner er representert av de røde og gule prikkene på kartet.

Hold musepekeren over prikken for å se navnet på stasjonen.

Klikk så for å se værobservasjoner og -varsler.

For å forandre kartet kan du klikke på den grønne knappen med svart kryss for å zoome inn, på den grønne knappen med strek for å zoome ut, eller på de grønne pilene for å se tilstøtende kart.


METAR-TAF: